Time;durP1;ratioP1;P1;durP2;ratioP2;P2;SDS_P1;SDS_P2;PMS_P1;PMS_P2;Temp;Humidity;BMP_temperature;BMP_pressure;BME280_temperature;BME280_humidity;BME280_pressure;Samples;Min_cycle;Max_cycle;Signal;HPM_P1;HPM_P2
2021/05/02 00:01:07;;;;;;;20.50;17.43;;;7.90;99.90;;;;;;4970886;28;20242;-51
2021/05/02 00:03:35;;;;;;;20.03;17.90;;;8.00;99.90;;;;;;4968822;28;20242;-51
2021/05/02 00:06:04;;;;;;;18.17;15.87;;;8.00;99.90;;;;;;4970746;28;20660;-52
2021/05/02 00:08:33;;;;;;;20.30;17.43;;;8.00;99.90;;;;;;4970423;28;20293;-51
2021/05/02 00:11:00;;;;;;;18.10;16.10;;;8.00;99.90;;;;;;4969934;28;20238;-51
2021/05/02 00:13:28;;;;;;;19.00;17.00;;;8.00;99.90;;;;;;4980862;28;20591;-51
2021/05/02 00:15:55;;;;;;;19.63;17.40;;;7.90;99.90;;;;;;4993647;28;20532;-51
2021/05/02 00:18:26;;;;;;;19.40;17.07;;;7.90;99.90;;;;;;4988428;28;20246;-52
2021/05/02 00:20:55;;;;;;;19.33;17.07;;;7.90;99.90;;;;;;5002983;28;20323;-51
2021/05/02 00:23:23;;;;;;;21.93;19.50;;;7.70;99.90;;;;;;4998725;28;20705;-51
2021/05/02 00:25:51;;;;;;;20.17;17.63;;;7.60;99.90;;;;;;4982697;28;20232;-52
2021/05/02 00:28:19;;;;;;;23.60;19.60;;;7.70;99.90;;;;;;4969771;28;20235;-52
2021/05/02 00:30:47;;;;;;;20.13;16.67;;;7.60;99.90;;;;;;4969019;28;20239;-51
2021/05/02 00:33:14;;;;;;;20.10;17.77;;;7.80;99.90;;;;;;4969326;28;20242;-52
2021/05/02 00:35:43;;;;;;;20.87;18.60;;;7.70;99.90;;;;;;4969871;28;20563;-51
2021/05/02 00:38:12;;;;;;;20.07;17.17;;;7.70;99.90;;;;;;4969567;28;20266;-51
2021/05/02 00:40:41;;;;;;;18.63;16.63;;;7.80;99.90;;;;;;4968857;28;20244;-52
2021/05/02 00:43:13;;;;;;;17.73;15.83;;;7.70;99.90;;;;;;4969314;28;20305;-51
2021/05/02 00:45:52;;;;;;;18.93;16.90;;;7.70;99.90;;;;;;4969603;28;20244;-51
2021/05/02 00:48:26;;;;;;;18.90;16.90;;;7.60;99.90;;;;;;4967776;28;20718;-52
2021/05/02 00:51:02;;;;;;;18.50;16.57;;;7.40;99.90;;;;;;4968770;28;20276;-52
2021/05/02 00:53:46;;;;;;;20.27;18.07;;;7.40;99.90;;;;;;4973002;28;20230;-52
2021/05/02 00:56:22;;;;;;;18.93;16.93;;;7.60;99.90;;;;;;4969422;28;20235;-52
2021/05/02 00:58:57;;;;;;;18.47;16.47;;;7.60;99.90;;;;;;4968915;28;20722;-51
2021/05/02 01:01:26;;;;;;;19.87;17.00;;;7.60;99.90;;;;;;4968570;28;20261;-52
2021/05/02 01:03:59;;;;;;;19.73;17.70;;;7.50;99.90;;;;;;4969826;28;20242;-52
2021/05/02 01:06:31;;;;;;;19.80;17.10;;;7.40;99.90;;;;;;4969309;28;20234;-52
2021/05/02 01:09:02;;;;;;;19.23;17.17;;;7.50;99.90;;;;;;4969264;28;20241;-53
2021/05/02 01:11:31;;;;;;;20.57;18.33;;;7.50;99.90;;;;;;4968758;28;20238;-52
2021/05/02 01:14:00;;;;;;;22.07;17.97;;;7.40;99.90;;;;;;4983440;28;20237;-51
2021/05/02 01:16:31;;;;;;;21.50;18.57;;;7.40;99.90;;;;;;4994838;28;20272;-52
2021/05/02 01:18:59;;;;;;;20.93;18.27;;;7.30;99.90;;;;;;4991018;28;20234;-52
2021/05/02 01:21:33;;;;;;;19.87;17.73;;;7.40;99.90;;;;;;4990555;28;20628;-54
2021/05/02 01:24:03;;;;;;;20.07;17.80;;;7.50;99.90;;;;;;4995450;28;20291;-52
2021/05/02 01:26:30;;;;;;;20.70;18.23;;;7.50;99.90;;;;;;4995137;28;20264;-51
2021/05/02 01:28:58;;;;;;;21.70;19.33;;;7.50;99.90;;;;;;4995183;28;20238;-52
2021/05/02 01:31:27;;;;;;;18.97;16.67;;;7.40;99.90;;;;;;4994209;28;20229;-51
2021/05/02 01:33:56;;;;;;;21.27;18.63;;;7.40;99.90;;;;;;4995260;28;20233;-51
2021/05/02 01:36:23;;;;;;;19.63;16.83;;;7.30;99.90;;;;;;4995442;28;20701;-52
2021/05/02 01:38:52;;;;;;;21.23;17.90;;;7.40;99.90;;;;;;4994955;28;20234;-51
2021/05/02 01:41:20;;;;;;;21.57;19.03;;;7.30;99.90;;;;;;4983846;28;20329;-51
2021/05/02 01:43:48;;;;;;;21.83;19.00;;;7.10;99.90;;;;;;4978655;28;20325;-52
2021/05/02 01:46:20;;;;;;;21.80;18.90;;;7.00;99.90;;;;;;4991778;28;20241;-52
2021/05/02 01:48:47;;;;;;;20.73;18.53;;;6.90;99.90;;;;;;4994804;28;20311;-51
2021/05/02 01:51:15;;;;;;;21.93;18.03;;;6.80;99.90;;;;;;4994337;28;20332;-52
2021/05/02 01:53:43;;;;;;;19.73;17.37;;;6.90;99.90;;;;;;4992634;28;20333;-52
2021/05/02 01:56:15;;;;;;;21.50;18.10;;;7.00;99.90;;;;;;4983998;28;20329;-51
2021/05/02 01:58:44;;;;;;;19.37;17.27;;;7.00;99.90;;;;;;4974860;28;20642;-51
2021/05/02 02:01:16;;;;;;;20.37;18.17;;;7.00;99.90;;;;;;4974134;28;20238;-52
2021/05/02 02:03:45;;;;;;;19.93;17.30;;;7.10;99.90;;;;;;4975282;28;20242;-51
2021/05/02 02:06:14;;;;;;;21.37;18.77;;;7.10;99.90;;;;;;4975679;28;20246;-51
2021/05/02 02:08:42;;;;;;;19.73;17.27;;;6.90;99.90;;;;;;4975964;28;20312;-51
2021/05/02 02:11:11;;;;;;;19.80;17.27;;;6.90;99.90;;;;;;4998763;28;20234;-51
2021/05/02 02:13:38;;;;;;;20.03;17.93;;;7.00;99.90;;;;;;5000565;28;20229;-52
2021/05/02 02:16:08;;;;;;;21.10;18.63;;;7.00;99.90;;;;;;4999092;28;20319;-51
2021/05/02 02:18:36;;;;;;;21.27;18.97;;;6.90;99.90;;;;;;4997312;28;20258;-53
2021/05/02 02:21:08;;;;;;;19.83;17.77;;;6.80;99.90;;;;;;4993452;28;20237;-51
2021/05/02 02:23:39;;;;;;;20.63;18.43;;;6.80;99.90;;;;;;4994244;28;20642;-52
2021/05/02 02:26:16;;;;;;;22.07;18.30;;;6.60;99.90;;;;;;4992187;28;20722;-52
2021/05/02 02:28:45;;;;;;;25.23;20.00;;;6.60;99.90;;;;;;4988196;28;20230;-52
2021/05/02 02:31:14;;;;;;;22.90;19.80;;;6.50;99.90;;;;;;4990910;28;20791;-51
2021/05/02 02:33:42;;;;;;;24.00;21.20;;;6.50;99.90;;;;;;4991119;28;20241;-52
2021/05/02 02:36:14;;;;;;;24.23;21.07;;;6.70;99.90;;;;;;4991642;28;20268;-51
2021/05/02 02:38:43;;;;;;;25.13;21.63;;;6.90;99.90;;;;;;4990661;28;20234;-51
2021/05/02 02:41:15;;;;;;;24.13;20.80;;;7.00;99.90;;;;;;4990464;28;20329;-51
2021/05/02 02:43:53;;;;;;;24.07;20.00;;;6.90;99.90;;;;;;4989417;28;20312;-51
2021/05/02 02:46:23;;;;;;;24.47;21.87;;;7.10;99.90;;;;;;4971634;28;20329;-52
2021/05/02 02:48:54;;;;;;;26.30;20.93;;;7.00;99.90;;;;;;4971808;28;20272;-52
2021/05/02 02:51:26;;;;;;;27.37;22.57;;;7.00;99.90;;;;;;4971150;28;20253;-52
2021/05/02 02:53:58;;;;;;;25.53;22.37;;;6.90;99.90;;;;;;4989223;28;20237;-51
2021/05/02 02:56:28;;;;;;;27.37;23.20;;;6.80;99.90;;;;;;4990468;28;20248;-51
2021/05/02 02:58:58;;;;;;;28.07;22.97;;;6.70;99.90;;;;;;4990628;28;20292;-52
2021/05/02 03:01:26;;;;;;;27.43;23.63;;;6.60;99.90;;;;;;4989697;28;20598;-53
2021/05/02 03:03:56;;;;;;;26.57;22.77;;;6.50;99.90;;;;;;4987945;28;20238;-52
2021/05/02 03:06:27;;;;;;;29.40;23.90;;;6.70;99.90;;;;;;4976361;28;20547;-52
2021/05/02 03:08:56;;;;;;;28.30;24.07;;;6.70;99.90;;;;;;4998531;28;20240;-52
2021/05/02 03:11:24;;;;;;;28.33;23.97;;;6.70;99.90;;;;;;4989285;28;20325;-52
2021/05/02 03:13:53;;;;;;;29.30;25.93;;;6.80;99.90;;;;;;5002365;28;20245;-51
2021/05/02 03:16:26;;;;;;;29.40;24.27;;;6.80;99.90;;;;;;4989843;28;20297;-51
2021/05/02 03:19:00;;;;;;;27.17;23.40;;;6.70;99.90;;;;;;4971031;28;20235;-53
2021/05/02 03:21:34;;;;;;;27.10;23.53;;;6.80;99.90;;;;;;4970484;28;20231;-52
2021/05/02 03:24:05;;;;;;;28.53;24.47;;;6.90;99.90;;;;;;4974293;28;20249;-52
2021/05/02 03:26:34;;;;;;;29.63;25.13;;;6.80;99.90;;;;;;4990275;28;20230;-51
2021/05/02 03:29:04;;;;;;;28.83;24.67;;;6.70;99.90;;;;;;4990612;28;20285;-51
2021/05/02 03:31:35;;;;;;;26.83;23.93;;;6.60;99.90;;;;;;4989563;28;20716;-52
2021/05/02 03:34:06;;;;;;;28.43;24.87;;;6.50;99.90;;;;;;4986518;28;20245;-52
2021/05/02 03:36:39;;;;;;;28.37;24.33;;;6.50;99.90;;;;;;4970940;28;20690;-52
2021/05/02 03:39:06;;;;;;;27.47;22.90;;;6.50;99.90;;;;;;4970286;28;20245;-52
2021/05/02 03:41:35;;;;;;;31.93;26.10;;;6.50;99.90;;;;;;4970106;28;20230;-51
2021/05/02 03:44:03;;;;;;;29.17;25.53;;;6.50;99.90;;;;;;4973928;28;20258;-51
2021/05/02 03:46:32;;;;;;;29.27;25.33;;;6.50;99.90;;;;;;4990015;28;20317;-51
2021/05/02 03:49:01;;;;;;;26.83;23.73;;;6.40;99.90;;;;;;4979611;28;20257;-53
2021/05/02 03:51:31;;;;;;;29.40;24.87;;;6.50;99.90;;;;;;4969628;28;20429;-52
2021/05/02 03:53:59;;;;;;;27.03;23.17;;;6.40;99.90;;;;;;4971418;28;20234;-51
2021/05/02 03:56:36;;;;;;;29.30;24.57;;;6.40;99.90;;;;;;4970499;28;20699;-53
2021/05/02 03:59:10;;;;;;;27.43;23.77;;;6.50;99.90;;;;;;4969845;28;20283;-51
2021/05/02 04:01:43;;;;;;;29.43;24.03;;;6.60;99.90;;;;;;4969760;28;20235;-52
2021/05/02 04:04:12;;;;;;;28.77;23.67;;;6.60;99.90;;;;;;4973455;28;20328;-51
2021/05/02 04:06:40;;;;;;;27.90;24.07;;;6.50;99.90;;;;;;4997353;28;20233;-51
2021/05/02 04:09:12;;;;;;;30.00;24.87;;;6.50;99.90;;;;;;4994596;28;20582;-52
2021/05/02 04:11:40;;;;;;;30.80;24.03;;;6.50;99.90;;;;;;5000278;28;20276;-54
2021/05/02 04:14:10;;;;;;;32.07;26.87;;;6.60;99.90;;;;;;5005833;28;20617;-52
2021/05/02 04:16:37;;;;;;;28.70;24.73;;;6.40;99.90;;;;;;5008651;28;20828;-51
2021/05/02 04:19:07;;;;;;;28.80;24.67;;;6.50;99.90;;;;;;5009278;28;20250;-53
2021/05/02 04:21:37;;;;;;;30.80;25.97;;;6.50;99.90;;;;;;5006906;28;20582;-52
2021/05/02 04:24:06;;;;;;;30.30;25.57;;;6.50;99.90;;;;;;4989549;28;20237;-53
2021/05/02 04:26:33;;;;;;;31.53;25.53;;;6.50;99.90;;;;;;4989571;28;20257;-54
2021/05/02 04:29:01;;;;;;;29.50;23.33;;;6.60;99.90;;;;;;4989546;28;20242;-52
2021/05/02 04:31:28;;;;;;;30.33;25.67;;;6.70;99.90;;;;;;4988724;28;20238;-52
2021/05/02 04:33:56;;;;;;;30.97;25.30;;;6.70;99.90;;;;;;4989310;28;20249;-51
2021/05/02 04:36:24;;;;;;;27.53;24.53;;;6.60;99.90;;;;;;4984139;28;20277;-51
2021/05/02 04:38:52;;;;;;;27.37;23.87;;;6.70;99.90;;;;;;4969462;28;20798;-52
2021/05/02 04:41:19;;;;;;;30.23;23.97;;;6.70;99.90;;;;;;4969414;28;20651;-52
2021/05/02 04:43:46;;;;;;;27.30;23.80;;;6.80;99.90;;;;;;4969389;28;20345;-51
2021/05/02 04:46:14;;;;;;;27.20;23.67;;;6.70;99.90;;;;;;4969484;28;20238;-51
2021/05/02 04:48:41;;;;;;;30.33;24.80;;;6.80;99.90;;;;;;4969075;28;20599;-51
2021/05/02 04:51:10;;;;;;;28.17;24.27;;;6.90;99.90;;;;;;4973309;28;20645;-51
2021/05/02 04:53:39;;;;;;;30.67;24.67;;;6.90;99.90;;;;;;4977778;28;20271;-52
2021/05/02 04:56:06;;;;;;;26.27;22.33;;;6.90;99.90;;;;;;4978357;28;20609;-52
2021/05/02 04:58:34;;;;;;;27.33;24.27;;;7.00;99.90;;;;;;4979791;28;20225;-51
2021/05/02 05:01:02;;;;;;;24.17;21.27;;;7.00;99.90;;;;;;4983629;28;20288;-52
2021/05/02 05:03:31;;;;;;;30.10;23.90;;;7.00;99.90;;;;;;4986324;28;20244;-51
2021/05/02 05:05:59;;;;;;;26.23;23.20;;;7.10;99.90;;;;;;4979486;28;20296;-52
2021/05/02 05:08:26;;;;;;;27.70;24.80;;;7.10;99.90;;;;;;4977330;28;20253;-53
2021/05/02 05:10:55;;;;;;;28.17;23.97;;;7.10;99.90;;;;;;4985392;28;20248;-52
2021/05/02 05:13:22;;;;;;;26.10;22.60;;;7.00;99.90;;;;;;5003523;28;20605;-53
2021/05/02 05:15:50;;;;;;;29.60;25.07;;;7.10;99.90;;;;;;4977907;28;20238;-51
2021/05/02 05:18:17;;;;;;;26.40;23.43;;;7.00;99.90;;;;;;4979421;28;20316;-52
2021/05/02 05:20:44;;;;;;;27.23;24.30;;;7.00;99.90;;;;;;4977495;28;20253;-52
2021/05/02 05:23:12;;;;;;;26.43;23.17;;;7.00;99.90;;;;;;4977349;28;20320;-52
2021/05/02 05:25:39;;;;;;;27.90;24.87;;;7.20;99.90;;;;;;4979254;28;20242;-52
2021/05/02 05:28:07;;;;;;;26.90;22.77;;;7.10;99.90;;;;;;4978228;28;20237;-52
2021/05/02 05:30:35;;;;;;;27.90;24.17;;;7.20;99.90;;;;;;4977128;28;20718;-52
2021/05/02 05:33:04;;;;;;;27.90;22.40;;;7.30;99.90;;;;;;4978209;28;20599;-52
2021/05/02 05:35:32;;;;;;;27.23;23.57;;;7.50;99.90;;;;;;4977778;28;20242;-52
2021/05/02 05:37:59;;;;;;;28.03;23.63;;;7.60;99.90;;;;;;4979732;28;20539;-52
2021/05/02 05:40:29;;;;;;;26.10;23.30;;;7.80;99.90;;;;;;4977248;28;20242;-52
2021/05/02 05:42:58;;;;;;;26.13;23.10;;;7.80;99.90;;;;;;4975367;28;20250;-52
2021/05/02 05:45:26;;;;;;;25.50;22.83;;;7.80;99.90;;;;;;4978240;28;20230;-52
2021/05/02 05:47:54;;;;;;;24.63;22.03;;;7.90;99.90;;;;;;4978921;28;20718;-52
2021/05/02 05:50:23;;;;;;;24.00;21.40;;;8.00;99.90;;;;;;4976272;28;20230;-51
2021/05/02 05:52:51;;;;;;;21.80;19.50;;;8.10;99.90;;;;;;4978116;28;20309;-51
2021/05/02 05:55:20;;;;;;;24.17;21.67;;;8.30;99.90;;;;;;4979337;28;20245;-51
2021/05/02 05:57:48;;;;;;;23.70;20.47;;;8.50;99.90;;;;;;4987591;28;20781;-51
2021/05/02 06:00:18;;;;;;;22.73;20.03;;;8.60;99.90;;;;;;4986914;28;20225;-52
2021/05/02 06:02:47;;;;;;;23.23;20.80;;;8.80;99.90;;;;;;4997855;28;20760;-51
2021/05/02 06:05:15;;;;;;;20.93;18.67;;;8.90;99.90;;;;;;4993232;28;20611;-52
2021/05/02 06:07:44;;;;;;;20.57;18.43;;;9.00;99.90;;;;;;5002895;28;20226;-52
2021/05/02 06:10:13;;;;;;;20.43;18.33;;;9.10;99.90;;;;;;4992588;28;20231;-52
2021/05/02 06:12:41;;;;;;;20.13;17.97;;;9.30;99.90;;;;;;4971676;28;20308;-54
2021/05/02 06:15:10;;;;;;;22.00;18.50;;;9.40;99.90;;;;;;4978374;28;20236;-51
2021/05/02 06:17:38;;;;;;;19.03;17.03;;;9.50;99.90;;;;;;4981148;28;20710;-51
2021/05/02 06:20:08;;;;;;;18.37;16.50;;;9.60;99.90;;;;;;4978038;28;20234;-52
2021/05/02 06:22:36;;;;;;;18.87;16.90;;;9.90;99.90;;;;;;4980454;28;20436;-52
2021/05/02 06:25:06;;;;;;;16.93;15.23;;;10.10;99.90;;;;;;4970720;28;20235;-51
2021/05/02 06:27:34;;;;;;;16.53;14.87;;;10.20;99.90;;;;;;4975647;28;20629;-52
2021/05/02 06:30:03;;;;;;;16.47;14.87;;;10.30;99.90;;;;;;4978566;28;20647;-52
2021/05/02 06:32:30;;;;;;;15.30;13.70;;;10.30;99.90;;;;;;4984068;28;20636;-52
2021/05/02 06:34:58;;;;;;;14.50;13.13;;;10.50;99.90;;;;;;4986291;28;20259;-51
2021/05/02 06:37:26;;;;;;;14.87;13.50;;;10.70;99.90;;;;;;4978256;28;20240;-52
2021/05/02 06:39:55;;;;;;;14.43;13.03;;;11.00;99.90;;;;;;4977080;28;20603;-51
2021/05/02 06:42:23;;;;;;;14.40;12.90;;;11.10;99.90;;;;;;4983437;28;20236;-52
2021/05/02 06:44:50;;;;;;;13.63;12.23;;;11.20;99.90;;;;;;4978317;28;20331;-52
2021/05/02 06:47:18;;;;;;;13.80;12.50;;;11.30;99.90;;;;;;4977859;28;20285;-52
2021/05/02 06:49:45;;;;;;;14.43;13.03;;;11.30;99.90;;;;;;4979104;28;20228;-52
2021/05/02 06:52:14;;;;;;;13.57;12.30;;;11.10;99.90;;;;;;4977776;28;20654;-52
2021/05/02 06:54:42;;;;;;;14.40;13.00;;;11.00;99.90;;;;;;4988891;28;20640;-52
2021/05/02 06:57:12;;;;;;;15.23;13.63;;;10.90;99.90;;;;;;4983490;28;20240;-52
2021/05/02 06:59:40;;;;;;;15.37;13.87;;;10.80;99.90;;;;;;4991861;28;20274;-52
2021/05/02 07:02:08;;;;;;;14.87;13.47;;;10.90;99.90;;;;;;4978858;28;20307;-50
2021/05/02 07:04:36;;;;;;;15.67;14.10;;;10.90;99.90;;;;;;4968151;28;20240;-50
2021/05/02 07:07:04;;;;;;;15.00;13.43;;;10.70;99.90;;;;;;4964944;28;20291;-51
2021/05/02 07:09:33;;;;;;;16.67;15.17;;;10.70;99.90;;;;;;4967561;28;20268;-49
2021/05/02 07:12:01;;;;;;;16.50;14.87;;;11.00;99.90;;;;;;4966030;28;20664;-50
2021/05/02 07:14:28;;;;;;;15.23;13.73;;;11.20;99.90;;;;;;4978904;28;20258;-52
2021/05/02 07:16:56;;;;;;;15.43;13.87;;;11.60;99.90;;;;;;4976719;28;20240;-52
2021/05/02 07:19:24;;;;;;;16.43;14.93;;;11.90;99.90;;;;;;4977464;28;20712;-52
2021/05/02 07:21:58;;;;;;;16.63;15.17;;;12.00;99.90;;;;;;4975887;28;20263;-52
2021/05/02 07:24:25;;;;;;;16.10;14.57;;;12.40;99.90;;;;;;4968411;28;20241;-52
2021/05/02 07:26:53;;;;;;;15.70;14.30;;;12.80;99.90;;;;;;4982210;28;20247;-52
2021/05/02 07:29:21;;;;;;;15.77;14.43;;;12.90;99.90;;;;;;4987428;28;20392;-52
2021/05/02 07:31:48;;;;;;;16.57;15.07;;;12.70;99.90;;;;;;4988033;28;20795;-52
2021/05/02 07:34:16;;;;;;;17.47;15.77;;;12.30;99.90;;;;;;4988850;28;20245;-53
2021/05/02 07:36:43;;;;;;;15.73;14.23;;;12.00;99.90;;;;;;4988665;28;20735;-53
2021/05/02 07:39:13;;;;;;;16.47;14.87;;;12.00;99.90;;;;;;4988368;28;20613;-52
2021/05/02 07:41:41;;;;;;;16.10;14.70;;;12.20;99.90;;;;;;4988482;28;20317;-52
2021/05/02 07:44:08;;;;;;;14.53;13.23;;;12.30;99.90;;;;;;4988200;28;20281;-52
2021/05/02 07:46:36;;;;;;;14.07;12.87;;;12.00;99.90;;;;;;4983845;28;20255;-52
2021/05/02 07:49:04;;;;;;;13.70;12.47;;;11.80;99.90;;;;;;4979916;28;20249;-52
2021/05/02 07:51:32;;;;;;;13.27;11.97;;;11.50;99.90;;;;;;4985534;28;20260;-53
2021/05/02 07:53:59;;;;;;;13.37;12.27;;;12.00;99.90;;;;;;4988649;28;20252;-52
2021/05/02 07:56:26;;;;;;;12.67;11.57;;;12.90;99.90;;;;;;4982495;28;20234;-52
2021/05/02 07:58:54;;;;;;;11.60;10.60;;;13.60;99.90;;;;;;4977557;28;20246;-52
2021/05/02 08:01:21;;;;;;;9.63;8.63;;;14.10;99.90;;;;;;4988416;28;20249;-51
2021/05/02 08:03:49;;;;;;;9.93;9.07;;;14.10;99.90;;;;;;4979589;28;20237;-52
2021/05/02 08:06:22;;;;;;;10.80;9.83;;;13.40;99.90;;;;;;4987606;28;20335;-54
2021/05/02 08:08:50;;;;;;;10.30;9.33;;;13.00;99.90;;;;;;4985115;28;20226;-52
2021/05/02 08:11:17;;;;;;;10.90;10.00;;;13.00;99.90;;;;;;4970890;28;20241;-53
2021/05/02 08:13:45;;;;;;;9.00;8.20;;;12.80;99.90;;;;;;4978891;28;20267;-52
2021/05/02 08:16:12;;;;;;;8.60;7.90;;;12.70;99.90;;;;;;4977156;28;20273;-54
2021/05/02 08:18:39;;;;;;;7.97;7.27;;;12.40;99.90;;;;;;4977589;28;20251;-52
2021/05/02 08:21:10;;;;;;;7.97;7.33;;;12.10;99.90;;;;;;4992818;28;20252;-52
2021/05/02 08:23:38;;;;;;;7.77;7.07;;;11.90;99.90;;;;;;4977169;28;20264;-52
2021/05/02 08:26:05;;;;;;;7.00;6.40;;;11.90;99.90;;;;;;4985618;28;20348;-53
2021/05/02 08:28:37;;;;;;;7.93;7.13;;;11.90;99.90;;;;;;4987751;28;20260;-53
2021/05/02 08:31:11;;;;;;;7.83;6.80;;;12.00;99.90;;;;;;4988215;28;20237;-54
2021/05/02 08:33:39;;;;;;;8.37;7.50;;;12.10;99.90;;;;;;4989337;28;20239;-53
2021/05/02 08:36:09;;;;;;;8.67;7.73;;;12.20;99.90;;;;;;4986179;28;20342;-55
2021/05/02 08:38:37;;;;;;;7.20;6.57;;;12.00;99.90;;;;;;4987910;28;20240;-52
2021/05/02 08:41:06;;;;;;;7.03;6.37;;;12.20;99.90;;;;;;4974725;28;20244;-51
2021/05/02 08:43:34;;;;;;;7.30;6.40;;;12.30;99.90;;;;;;4970320;28;20324;-52
2021/05/02 08:46:02;;;;;;;8.80;7.97;;;12.20;99.90;;;;;;4970306;28;20575;-52
2021/05/02 08:48:30;;;;;;;8.20;7.50;;;12.30;99.90;;;;;;4986090;28;20323;-52
2021/05/02 08:50:59;;;;;;;8.70;7.83;;;12.20;99.90;;;;;;4973292;28;20241;-52
2021/05/02 08:53:28;;;;;;;9.10;8.30;;;12.10;99.90;;;;;;4973222;28;20294;-52
2021/05/02 08:55:56;;;;;;;8.83;7.90;;;12.10;99.90;;;;;;4985493;28;20240;-52
2021/05/02 08:58:25;;;;;;;8.90;8.00;;;11.80;99.90;;;;;;4982242;28;20405;-54
2021/05/02 09:00:55;;;;;;;8.30;7.50;;;11.80;99.90;;;;;;4988018;28;20249;-53
2021/05/02 09:03:38;;;;;;;8.73;7.83;;;11.80;99.90;;;;;;4973846;28;20241;-52
2021/05/02 09:06:17;;;;;;;8.63;7.83;;;11.90;99.90;;;;;;4973250;28;20242;-52
2021/05/02 09:08:51;;;;;;;9.63;8.73;;;12.00;99.90;;;;;;4967779;28;20244;-51
2021/05/02 09:11:32;;;;;;;8.93;8.03;;;12.10;99.90;;;;;;4971127;28;20295;-52
2021/05/02 09:14:06;;;;;;;9.17;8.27;;;12.10;99.90;;;;;;4985440;28;20239;-52
2021/05/02 09:16:46;;;;;;;8.60;7.80;;;12.20;99.90;;;;;;4980240;28;20516;-52
2021/05/02 09:19:14;;;;;;;9.10;8.20;;;12.20;99.90;;;;;;4981948;28;20240;-53
2021/05/02 09:21:43;;;;;;;9.60;8.70;;;12.10;99.90;;;;;;4981316;28;20233;-52
2021/05/02 09:24:27;;;;;;;9.27;8.37;;;12.10;99.90;;;;;;4983916;28;20248;-53
2021/05/02 09:27:04;;;;;;;9.10;8.20;;;12.10;99.90;;;;;;4977627;28;20238;-52
2021/05/02 09:29:34;;;;;;;8.67;7.83;;;12.10;99.90;;;;;;4982740;28;20315;-52
2021/05/02 09:32:02;;;;;;;8.70;7.90;;;12.10;99.90;;;;;;4980061;28;20264;-50
2021/05/02 09:34:30;;;;;;;9.43;8.07;;;12.20;99.90;;;;;;4978762;28;20252;-49
2021/05/02 09:37:02;;;;;;;8.63;7.83;;;12.20;99.90;;;;;;4985548;28;20320;-52
2021/05/02 09:39:42;;;;;;;9.27;8.27;;;12.10;99.90;;;;;;4981172;28;20248;-52
2021/05/02 09:42:15;;;;;;;9.37;8.47;;;12.30;99.90;;;;;;4981078;28;20261;-53
2021/05/02 09:44:46;;;;;;;8.97;8.07;;;12.40;99.90;;;;;;4983227;28;20589;-52
2021/05/02 09:47:38;;;;;;;8.30;7.53;;;12.50;99.90;;;;;;4958690;28;20250;-52
2021/05/02 09:50:14;;;;;;;9.23;7.70;;;12.60;99.90;;;;;;4958705;28;20360;-52
2021/05/02 09:52:52;;;;;;;8.40;7.60;;;12.70;99.90;;;;;;4972985;28;20250;-52
2021/05/02 09:55:32;;;;;;;8.37;7.67;;;12.80;99.90;;;;;;4990160;28;20240;-52
2021/05/02 09:58:03;;;;;;;9.60;8.70;;;13.10;99.90;;;;;;4978806;28;20285;-52
2021/05/02 10:00:37;;;;;;;8.63;7.83;;;13.20;99.90;;;;;;4973738;28;20665;-53
2021/05/02 10:03:08;;;;;;;8.77;8.07;;;13.30;99.90;;;;;;4972311;28;20230;-52
2021/05/02 10:05:52;;;;;;;9.43;8.53;;;13.40;99.90;;;;;;4974023;28;20265;-53
2021/05/02 10:08:20;;;;;;;9.97;8.97;;;13.20;99.90;;;;;;4990961;28;20241;-52
2021/05/02 10:10:49;;;;;;;9.97;9.07;;;13.10;99.90;;;;;;4987852;28;20612;-52
2021/05/02 10:13:17;;;;;;;10.83;9.80;;;12.80;99.90;;;;;;4991966;28;20640;-52
2021/05/02 10:15:45;;;;;;;10.30;9.30;;;12.40;99.90;;;;;;4980885;28;20241;-53
2021/05/02 10:18:12;;;;;;;10.13;9.10;;;12.10;99.90;;;;;;4983706;28;20249;-52
2021/05/02 10:20:43;;;;;;;9.33;8.43;;;12.20;99.90;;;;;;4987471;28;20275;-52
2021/05/02 10:23:13;;;;;;;6.87;6.27;;;12.30;99.90;;;;;;4985738;28;20253;-54
2021/05/02 10:25:45;;;;;;;6.37;5.00;;;12.00;99.90;;;;;;4988586;28;20256;-52
2021/05/02 10:28:17;;;;;;;5.27;4.77;;;11.70;99.90;;;;;;4989313;28;20248;-52
2021/05/02 10:30:49;;;;;;;4.73;4.33;;;11.50;99.90;;;;;;4986197;28;20768;-53
2021/05/02 10:33:32;;;;;;;5.23;3.83;;;11.50;99.90;;;;;;4988022;28;20253;-52
2021/05/02 10:36:04;;;;;;;3.80;3.50;;;11.60;99.90;;;;;;4988508;28;20291;-53
2021/05/02 10:38:52;;;;;;;4.17;3.80;;;11.80;99.90;;;;;;4985050;28;20241;-52
2021/05/02 10:41:31;;;;;;;3.67;3.37;;;12.30;99.90;;;;;;4987252;28;20241;-52
2021/05/02 10:44:32;;;;;;;4.40;3.80;;;12.90;99.90;;;;;;4991145;28;20243;-54
2021/05/02 10:47:01;;;;;;;4.53;3.73;;;13.20;99.90;;;;;;4990514;28;20507;-52
2021/05/02 10:49:59;;;;;;;3.67;3.23;;;13.50;99.90;;;;;;4989727;28;20233;-53
2021/05/02 10:52:35;;;;;;;2.90;2.23;;;13.60;99.90;;;;;;4992895;28;20293;-52
2021/05/02 10:55:15;;;;;;;2.60;2.40;;;13.40;99.90;;;;;;4999397;28;20316;-54
2021/05/02 10:57:48;;;;;;;2.50;2.03;;;13.50;99.90;;;;;;4978225;28;20234;-52
2021/05/02 11:00:17;;;;;;;2.43;2.23;;;13.50;99.90;;;;;;4990521;28;20238;-53
2021/05/02 11:02:47;;;;;;;2.60;2.40;;;13.70;99.90;;;;;;4990028;28;20348;-52
2021/05/02 11:05:18;;;;;;;3.40;3.10;;;13.40;99.90;;;;;;4991299;28;20236;-52
2021/05/02 11:07:47;;;;;;;3.40;3.07;;;12.90;99.90;;;;;;4991402;28;20819;-52
2021/05/02 11:10:17;;;;;;;3.40;3.10;;;13.20;99.90;;;;;;4988962;28;20261;-52
2021/05/02 11:12:46;;;;;;;5.37;3.70;;;13.40;99.90;;;;;;4990387;28;20245;-52
2021/05/02 11:15:39;;;;;;;4.97;4.53;;;13.30;99.90;;;;;;4990743;28;20269;-52
2021/05/02 11:18:23;;;;;;;4.93;4.53;;;13.20;99.90;;;;;;4990465;28;20245;-52
2021/05/02 11:20:52;;;;;;;5.13;3.70;;;13.10;99.90;;;;;;4984669;28;20324;-52
2021/05/02 11:23:56;;;;;;;3.50;2.70;;;12.20;99.90;;;;;;4990921;28;20242;-51
2021/05/02 11:26:51;;;;;;;2.50;2.30;;;11.30;99.90;;;;;;4990070;28;20247;-52
2021/05/02 11:29:21;;;;;;;3.10;2.80;;;10.70;99.90;;;;;;4982396;28;20676;-52
2021/05/02 11:31:49;;;;;;;3.60;2.97;;;10.40;99.90;;;;;;4970443;28;20234;-51
2021/05/02 11:34:17;;;;;;;3.40;3.10;;;10.20;99.90;;;;;;4971211;28;20261;-52
2021/05/02 11:36:46;;;;;;;3.70;3.10;;;10.10;99.90;;;;;;4970815;28;20232;-52
2021/05/02 11:39:42;;;;;;;4.50;3.90;;;10.10;99.90;;;;;;4976725;28;20232;-53
2021/05/02 11:42:10;;;;;;;4.57;3.70;;;10.10;99.90;;;;;;4989464;28;20244;-51
2021/05/02 11:44:38;;;;;;;4.87;4.40;;;10.20;99.90;;;;;;4987557;28;20282;-52
2021/05/02 11:47:13;;;;;;;5.23;4.43;;;10.20;99.90;;;;;;4981752;28;20244;-52
2021/05/02 11:49:42;;;;;;;4.77;4.27;;;10.30;99.90;;;;;;4974256;28;20237;-52
2021/05/02 11:52:09;;;;;;;5.47;5.00;;;10.30;99.90;;;;;;4992015;28;20606;-51
2021/05/02 11:54:45;;;;;;;4.83;4.40;;;10.40;99.90;;;;;;4989505;28;20282;-52
2021/05/02 11:57:13;;;;;;;5.67;5.03;;;10.40;99.90;;;;;;4989957;28;20239;-53
2021/05/02 11:59:49;;;;;;;5.93;5.40;;;10.40;99.90;;;;;;4988772;28;20267;-52
2021/05/02 12:02:17;;;;;;;5.40;4.90;;;10.60;99.90;;;;;;4989720;28;20291;-52
2021/05/02 12:04:45;;;;;;;5.47;4.90;;;10.90;99.90;;;;;;4977720;28;20273;-51
2021/05/02 12:07:12;;;;;;;4.50;4.10;;;11.40;99.90;;;;;;4970278;28;20249;-52
2021/05/02 12:09:42;;;;;;;3.90;3.60;;;11.80;99.90;;;;;;4969624;28;20292;-51
2021/05/02 12:12:11;;;;;;;4.10;3.80;;;12.10;99.90;;;;;;4970189;28;20245;-51
2021/05/02 12:14:38;;;;;;;4.20;3.53;;;12.20;99.90;;;;;;4979106;28;20233;-52
2021/05/02 12:17:07;;;;;;;4.03;3.63;;;12.30;99.90;;;;;;4989840;28;20579;-52
2021/05/02 12:19:53;;;;;;;4.03;3.70;;;12.50;99.90;;;;;;4989215;28;20287;-53
2021/05/02 12:22:20;;;;;;;4.23;3.53;;;12.40;99.90;;;;;;4989441;28;20248;-52
2021/05/02 12:24:49;;;;;;;4.30;3.93;;;12.40;99.90;;;;;;4989602;28;20240;-52
2021/05/02 12:27:18;;;;;;;4.10;3.80;;;12.20;99.90;;;;;;4985334;28;20241;-51
2021/05/02 12:29:53;;;;;;;4.37;3.97;;;11.90;99.90;;;;;;4985572;28;20776;-51
2021/05/02 12:32:25;;;;;;;4.50;4.10;;;11.80;99.90;;;;;;4984506;28;20244;-53
2021/05/02 12:34:54;;;;;;;4.70;4.30;;;11.60;99.90;;;;;;4968058;28;20598;-53
2021/05/02 12:37:23;;;;;;;4.37;3.97;;;11.60;99.90;;;;;;4955946;28;20241;-52
2021/05/02 12:39:52;;;;;;;7.43;4.47;;;11.70;99.90;;;;;;4960601;28;20273;-54
2021/05/02 12:42:29;;;;;;;5.50;4.53;;;11.90;99.90;;;;;;4958718;28;20248;-52
2021/05/02 12:44:56;;;;;;;4.93;4.53;;;12.00;99.90;;;;;;4959491;28;20248;-55
2021/05/02 12:47:26;;;;;;;4.83;4.43;;;12.00;99.90;;;;;;4956153;28;20265;-53
2021/05/02 12:49:57;;;;;;;5.23;4.73;;;12.00;99.90;;;;;;4959912;28;20432;-52
2021/05/02 12:52:30;;;;;;;5.17;4.60;;;12.10;99.90;;;;;;4958548;28;20297;-53
2021/05/02 12:55:13;;;;;;;5.47;4.90;;;12.20;99.90;;;;;;4961732;28;20603;-52